Warwick, NY (10990)

9:22 PM EDT on April 24, 2015 (GMT -0400)
Warwick Old Ridge Road | | Change Station
CLOSE
Current Station
Personal Weather Station
Location: Warwick, NY
Elevation: 794 ft
Nearby Weather Stations
Active Advisory: Freeze Warning

Elev 794 ft 41.30 °N, 74.36 °W | Updated 4 seconds ago

Partly Cloudy
Partly Cloudy
34.9 °F
Feels Like 30 °F
N
6.0
Wind Variable Wind from WNW
Gusts 7.4 mph

Today
High -- | Low -- °F
--% Chance of Precip.
Yesterday
High -- | Low -- °F
Precip. -- in
6:04 AM 7:47 PM
Waxing Crescent, 41% visible
Pressure 29.96 in
Visibility 10.0 miles
Clouds Clear
Windchill 30 °F
Dew Point 19 °F
Humidity 52%
Rainfall 0.00 in
Snow Depth Not available.
UV 0.0 out of 12
Pollen 11.20 out of 12
Air Quality Not available.
Flu Activity Widespread
METAR KFWN 250053Z AUTO 36007KT 10SM CLR 03/M06 A2995 RMK AO2 SLP145 T00331061

More Conditions Fewer Conditions

Pressure 29.96 in
Visibility 10.0 miles
Clouds Clear
Windchill 30 °F
Dew Point 19 °F
Humidity 52%
Rainfall 0.00 in
Snow Depth Not available.
UV 0.0 out of 12
Pollen 11.20 out of 12
Air Quality Not available.
Flu Activity Widespread
METAR KFWN 250053Z AUTO 36007KT 10SM CLR 03/M06 A2995 RMK AO2 SLP145 T00331061

More Conditions Fewer Conditions

10-Day Weather Forecast

Almanac

Astronomy

Apr. 24, 2015 Rise Set
Actual Time
Civil Twilight
Nautical Twilight
Astronomical Twilight
Moon
Length of Visible Light
Length of Day
Tomorrow will be .
, % of the Moon is Illuminated

Today's Extremes

State Highs State Lows

Community

WunderPhotos

Upload Photos

1,816,544 photos uploaded!

WunderBlogs® & News

Nearby

Air Quality

  Air Quality AQ Index Pollutant
Not available.

Snow Depth

Station Depth Elevation

Earthquake Activity

City Distance Mag. Time & Date
Minimum magnitude displayed is 2.5.

Coastal Water Temperatures

Place Temperature

Stations

Nearby Weather Stations

Station Location Temp. Windchill Dew Point Humidity Wind Precip. Elev Updated Type
                   
Freeze Warning
Statement as of 3:47 PM EDT on April 24, 2015

... Freeze warning in effect from 1 am to 9 am EDT Saturday...

The National Weather Service in Upton has issued a freeze
warning... which is in effect from 1 am to 9 am EDT Saturday. The
freeze watch is no longer in effect.

* Locations... interior southern Connecticut... the lower Hudson
Valley... and interior portions of northeastern New Jersey.

* Hazards... sub-freezing temperatures.

* Temperatures... mid 20s to around 30.

* Timing... late tonight through early Saturday morning.

* Impacts... the sub-freezing temperatures will kill crops and
other sensitive vegetation.

Precautionary/preparedness actions...

A freeze warning means below freezing temperatures are imminent
or highly likely. These conditions will kill crops and other
sensitive vegetation.